Blanchard, Louisiana
Current Conditions -  °F | °C
As of 5:53 PM on Sunday 23 Nov 2014 (Local Time) from KDTN Reporting Station
Clear Clear  
Wind Chill: 67°   Ceiling: Unl
Heat Index: 67°   Visibility: 10mi
Dew Point: 55°   Wind: 13mph
Humidity: 66%   Direction: 190°S
Pressure: 29.46"   Gusts: NA
Location:  32.58°N, 93.89°W
Report Text: KDTN 232353Z 19011KT 10SM CLR 19/13 A2946 RMK AO2 SLP975 T01940128 10222 20189 53016
Loading
Personal Weather Stations






























Interactive Weather Map New forecast layout! Learn more

10-Day Weather Forecast

Advertisements
Track Severe Weather on mobile